Oakland, Texas
Current Conditions -  °F | °C
As of 5:15 PM on Monday 22 Dec 2014 (Local Time) from K66R Reporting Station
Clear Clear  
Wind Chill: 65°   Ceiling: Unl
Heat Index: 65°   Visibility: 10mi
Dew Point: 60°   Wind: 3mph
Humidity: 83%   Direction: 360°N
Pressure: 29.63"   Gusts: NA
Location:  29.6°N, 96.83°W
Report Text: K66R 222315Z AUTO 36003KT 10SM CLR 19/16 A2963 RMK AO2 T01860157
Loading
Personal Weather Stations






























Interactive Weather Map New forecast layout! Learn more

10-Day Weather Forecast

Advertisements
Track Severe Weather on mobile